createdAt,value
2018-04-17T00:00:40.594Z,91.20
2018-04-17T00:03:08.747Z,91.00
2018-04-17T00:05:37.011Z,91.20
2018-04-17T00:08:05.926Z,91.40
2018-04-17T00:10:34.098Z,91.30
2018-04-17T00:13:02.256Z,91.30
2018-04-17T00:15:31.261Z,90.80
2018-04-17T00:17:59.474Z,91.00
2018-04-17T00:20:27.627Z,91.20
2018-04-17T00:22:55.799Z,91.30
2018-04-17T00:25:24.020Z,91.30
2018-04-17T00:27:52.274Z,91.70
2018-04-17T00:30:20.422Z,91.80
2018-04-17T00:32:48.634Z,91.90
2018-04-17T00:35:17.587Z,92.50
2018-04-17T00:37:45.754Z,92.20
2018-04-17T00:40:13.915Z,91.90
2018-04-17T00:42:42.849Z,92.10
2018-04-17T00:45:11.819Z,91.80
2018-04-17T00:47:39.993Z,91.80
2018-04-17T00:50:08.148Z,91.70
2018-04-17T00:52:37.185Z,91.40
2018-04-17T00:55:06.002Z,91.40
2018-04-17T00:57:34.171Z,91.90
2018-04-17T01:00:02.327Z,91.60
2018-04-17T01:02:30.517Z,91.40
2018-04-17T01:04:59.462Z,91.70
2018-04-17T01:07:27.671Z,91.60
2018-04-17T01:09:55.827Z,91.80
2018-04-17T01:12:23.999Z,91.50
2018-04-17T01:14:52.330Z,91.60
2018-04-17T01:17:20.516Z,91.80
2018-04-17T01:19:49.447Z,91.80
2018-04-17T01:22:17.632Z,91.80
2018-04-17T01:24:46.730Z,91.20
2018-04-17T01:27:14.888Z,90.90
2018-04-17T01:29:43.067Z,91.20
2018-04-17T01:32:12.096Z,91.00
2018-04-17T01:34:41.064Z,91.40
2018-04-17T01:37:09.253Z,91.40
2018-04-17T01:39:37.419Z,91.60
2018-04-17T01:42:05.800Z,91.70
2018-04-17T01:44:34.187Z,91.60
2018-04-17T01:47:02.331Z,91.40
2018-04-17T01:49:30.515Z,91.40
2018-04-17T01:51:58.671Z,91.20
2018-04-17T01:54:27.676Z,91.90
2018-04-17T01:56:55.836Z,91.50
2018-04-17T01:59:24.019Z,91.50
2018-04-17T02:01:52.179Z,91.40
2018-04-17T02:04:21.319Z,91.20
2018-04-17T02:06:49.471Z,91.20
2018-04-17T02:09:17.644Z,91.60
2018-04-17T02:11:45.811Z,91.70
2018-04-17T02:14:14.827Z,91.20
2018-04-17T02:16:42.984Z,91.20
2018-04-17T02:19:11.164Z,91.10
2018-04-17T02:21:39.326Z,91.30
2018-04-17T02:24:08.359Z,91.20
2018-04-17T02:26:36.509Z,91.20
2018-04-17T02:29:04.670Z,91.30
2018-04-17T02:31:32.868Z,91.00
2018-04-17T02:34:01.080Z,90.80
2018-04-17T02:36:29.218Z,90.90
2018-04-17T02:38:57.495Z,90.80
2018-04-17T02:41:25.641Z,90.60
2018-04-17T02:43:54.776Z,91.20
2018-04-17T02:46:22.920Z,90.90
2018-04-17T02:48:51.217Z,91.30
2018-04-17T02:51:19.368Z,91.50
2018-04-17T02:53:48.341Z,91.50
2018-04-17T02:56:16.560Z,91.10
2018-04-17T02:58:44.726Z,91.70
2018-04-17T03:01:13.014Z,91.70
2018-04-17T03:03:42.099Z,90.80
2018-04-17T03:06:10.271Z,90.80
2018-04-17T03:08:38.418Z,91.00
2018-04-17T03:11:08.550Z,90.70
2018-04-17T03:13:37.254Z,91.10
2018-04-17T03:16:05.529Z,90.90
2018-04-17T03:18:33.707Z,90.80
2018-04-17T03:21:01.882Z,90.80
2018-04-17T03:23:30.938Z,91.50
2018-04-17T03:25:59.213Z,91.50
2018-04-17T03:28:27.332Z,91.50
2018-04-17T03:30:55.528Z,91.60
2018-04-17T03:33:24.461Z,91.30
2018-04-17T03:35:52.635Z,91.30
2018-04-17T03:38:20.833Z,91.70
2018-04-17T03:40:49.008Z,91.90
2018-04-17T03:43:18.201Z,91.60
2018-04-17T03:45:46.482Z,91.60
2018-04-17T03:48:14.635Z,91.80
2018-04-17T03:50:42.842Z,91.10
2018-04-17T03:53:11.791Z,91.70
2018-04-17T03:55:39.964Z,91.60
2018-04-17T03:58:08.119Z,91.70
2018-04-17T04:00:37.076Z,91.70
2018-04-17T04:03:06.171Z,91.20
2018-04-17T04:05:34.344Z,91.20
2018-04-17T04:08:02.498Z,91.30
2018-04-17T04:10:30.793Z,91.10
2018-04-17T04:12:59.744Z,91.20
2018-04-17T04:15:27.914Z,91.10
2018-04-17T04:18:07.983Z,91.10
2018-04-17T04:20:48.170Z,91.20
2018-04-17T04:23:28.458Z,91.50
2018-04-17T04:26:09.374Z,91.30
2018-04-17T04:28:37.562Z,91.30
2018-04-17T04:31:05.751Z,91.30
2018-04-17T04:33:34.842Z,90.90
2018-04-17T04:36:03.123Z,90.80
2018-04-17T04:38:31.288Z,91.10
2018-04-17T04:40:59.463Z,91.20
2018-04-17T04:43:28.437Z,90.80
2018-04-17T04:45:56.594Z,90.80
2018-04-17T04:48:24.765Z,90.60
2018-04-17T04:50:52.930Z,90.40
2018-04-17T04:53:21.969Z,90.20
2018-04-17T04:55:50.213Z,90.20
2018-04-17T04:58:18.345Z,90.50
2018-04-17T05:00:46.502Z,90.60
2018-04-17T05:03:15.882Z,91.20
2018-04-17T05:05:44.034Z,90.90
2018-04-17T05:08:12.206Z,91.10
2018-04-17T05:10:40.366Z,91.60
2018-04-17T05:13:09.397Z,92.00
2018-04-17T05:15:37.562Z,92.00
2018-04-17T05:18:05.742Z,91.50
2018-04-17T05:20:33.946Z,91.10
2018-04-17T05:23:02.915Z,91.40
2018-04-17T05:25:31.071Z,91.40
2018-04-17T05:27:59.283Z,91.60
2018-04-17T05:30:27.456Z,91.70
2018-04-17T05:32:56.434Z,92.00
2018-04-17T05:35:24.592Z,92.00
2018-04-17T05:37:52.761Z,92.00
2018-04-17T05:40:20.977Z,92.00
2018-04-17T05:42:49.155Z,92.30
2018-04-17T05:45:17.320Z,92.30
2018-04-17T05:47:45.490Z,92.50
2018-04-17T05:50:13.721Z,92.70
2018-04-17T05:52:42.755Z,92.10
2018-04-17T05:55:10.943Z,92.00
2018-04-17T05:57:39.135Z,91.90
2018-04-17T06:00:07.295Z,91.90
2018-04-17T06:02:36.251Z,92.60
2018-04-17T06:05:04.451Z,92.50
2018-04-17T06:07:32.600Z,92.60
2018-04-17T06:10:00.779Z,92.70
2018-04-17T06:12:29.758Z,92.30
2018-04-17T06:14:57.966Z,92.30
2018-04-17T06:17:26.122Z,92.20
2018-04-17T06:19:54.295Z,92.20
2018-04-17T06:22:23.269Z,92.20
2018-04-17T06:24:51.451Z,92.10
2018-04-17T06:27:19.602Z,92.00
2018-04-17T06:29:48.558Z,91.90
2018-04-17T06:32:17.517Z,91.90
2018-04-17T06:34:45.697Z,91.90
2018-04-17T06:37:13.887Z,91.80
2018-04-17T06:39:42.080Z,91.90
2018-04-17T06:42:11.030Z,90.90
2018-04-17T06:44:39.236Z,90.90
2018-04-17T06:47:07.410Z,90.80
2018-04-17T06:49:35.578Z,90.80
2018-04-17T06:52:04.648Z,91.20
2018-04-17T06:54:32.837Z,91.10
2018-04-17T06:57:00.999Z,90.60
2018-04-17T06:59:29.208Z,90.10
2018-04-17T07:01:58.160Z,89.60
2018-04-17T07:04:26.338Z,89.60
2018-04-17T07:06:54.509Z,88.50
2018-04-17T07:09:22.694Z,87.20
2018-04-17T07:11:51.674Z,86.10
2018-04-17T07:14:19.854Z,86.10
2018-04-17T07:16:48.041Z,85.70
2018-04-17T07:19:16.207Z,84.60
2018-04-17T07:21:45.325Z,83.80
2018-04-17T07:24:13.499Z,83.80
2018-04-17T07:26:41.681Z,81.30
2018-04-17T07:29:09.834Z,80.80
2018-04-17T07:31:38.817Z,79.70
2018-04-17T07:34:06.986Z,79.60
2018-04-17T07:36:35.191Z,79.70
2018-04-17T07:39:03.338Z,79.10
2018-04-17T07:41:32.343Z,78.70
2018-04-17T07:44:00.510Z,78.70
2018-04-17T07:46:28.701Z,79.30
2018-04-17T07:49:07.639Z,77.50
2018-04-17T07:51:36.711Z,77.20
2018-04-17T07:54:04.898Z,77.20
2018-04-17T07:56:33.067Z,75.90
2018-04-17T07:59:01.222Z,75.60
2018-04-17T08:01:30.236Z,74.40
2018-04-17T08:03:58.390Z,74.40
2018-04-17T08:06:26.599Z,75.60
2018-04-17T08:08:54.756Z,75.20
2018-04-17T08:11:23.744Z,72.70
2018-04-17T08:13:51.918Z,72.60
2018-04-17T08:16:20.081Z,73.60
2018-04-17T08:18:48.268Z,74.20
2018-04-17T08:21:17.274Z,75.40
2018-04-17T08:23:45.546Z,75.40
2018-04-17T08:26:13.735Z,74.20
2018-04-17T08:28:41.897Z,74.70
2018-04-17T08:31:11.006Z,72.80
2018-04-17T08:33:40.671Z,70.70
2018-04-17T08:36:08.865Z,70.60
2018-04-17T08:38:37.055Z,71.90
2018-04-17T08:41:06.010Z,72.30
2018-04-17T08:43:34.182Z,72.30
2018-04-17T08:46:02.347Z,68.20
2018-04-17T08:48:30.573Z,69.70
2018-04-17T08:50:59.539Z,70.10
2018-04-17T08:53:27.734Z,70.10
2018-04-17T08:55:55.902Z,67.90
2018-04-17T08:58:24.183Z,70.30
2018-04-17T09:00:53.161Z,70.50
2018-04-17T09:03:21.347Z,70.50
2018-04-17T09:05:49.507Z,68.40
2018-04-17T09:08:17.678Z,65.80
2018-04-17T09:10:46.662Z,67.50
2018-04-17T09:13:14.875Z,67.50
2018-04-17T09:15:43.030Z,67.80
2018-04-17T09:18:11.218Z,65.50
2018-04-17T09:20:40.177Z,65.40
2018-04-17T09:23:08.363Z,65.40
2018-04-17T09:25:36.518Z,66.90
2018-04-17T09:28:04.726Z,65.40
2018-04-17T09:30:33.696Z,66.10
2018-04-17T09:33:01.897Z,66.10
2018-04-17T09:35:30.054Z,63.40
2018-04-17T09:37:58.338Z,64.00
2018-04-17T09:40:27.319Z,61.00
2018-04-17T09:42:55.493Z,61.00
2018-04-17T09:45:23.650Z,62.90
2018-04-17T09:47:51.840Z,62.30
2018-04-17T09:50:20.823Z,62.50
2018-04-17T09:52:49.026Z,61.70
2018-04-17T09:55:17.179Z,63.10
2018-04-17T09:57:45.363Z,61.00
2018-04-17T10:00:14.342Z,63.60
2018-04-17T10:02:42.529Z,63.60
2018-04-17T10:05:10.674Z,61.50
2018-04-17T10:07:38.898Z,59.20
2018-04-17T10:10:07.859Z,59.70
2018-04-17T10:12:36.012Z,59.70
2018-04-17T10:15:04.226Z,59.60
2018-04-17T10:17:32.397Z,59.90
2018-04-17T10:20:00.594Z,61.30
2018-04-17T10:22:28.880Z,59.60
2018-04-17T10:24:57.130Z,59.00
2018-04-17T10:27:25.282Z,58.30
2018-04-17T10:29:53.614Z,58.80
2018-04-17T10:32:21.770Z,59.00
2018-04-17T10:34:49.951Z,58.20
2018-04-17T10:37:18.094Z,58.50
2018-04-17T10:39:47.116Z,57.80
2018-04-17T10:42:15.366Z,57.70
2018-04-17T10:44:43.552Z,57.90
2018-04-17T10:47:11.716Z,57.70
2018-04-17T10:49:40.000Z,57.80
2018-04-17T10:52:08.282Z,57.50
2018-04-17T10:54:36.558Z,57.40
2018-04-17T10:57:04.716Z,56.20
2018-04-17T10:59:33.900Z,56.30
2018-04-17T11:02:02.050Z,55.90
2018-04-17T11:04:30.231Z,54.40
2018-04-17T11:06:58.378Z,56.50
2018-04-17T11:09:27.421Z,56.60
2018-04-17T11:11:55.569Z,56.40
2018-04-17T11:14:23.755Z,54.80
2018-04-17T11:16:51.950Z,55.40
2018-04-17T11:19:20.922Z,53.80
2018-04-17T11:21:49.074Z,53.80
2018-04-17T11:24:17.246Z,54.10
2018-04-17T11:26:45.401Z,54.30
2018-04-17T11:29:14.420Z,53.30
2018-04-17T11:31:42.631Z,53.30
2018-04-17T11:34:10.793Z,53.10
2018-04-17T11:36:38.942Z,54.60
2018-04-17T11:39:07.863Z,54.30
2018-04-17T11:41:36.043Z,53.10
2018-04-17T11:44:04.314Z,49.20
2018-04-17T11:46:32.482Z,40.90
2018-04-17T11:49:01.493Z,45.20
2018-04-17T11:51:29.626Z,45.20
2018-04-17T11:53:57.796Z,40.20
2018-04-17T11:56:25.953Z,41.10
2018-04-17T11:58:54.978Z,41.80
2018-04-17T12:01:23.172Z,41.80
2018-04-17T12:03:51.607Z,45.80
2018-04-17T12:06:19.783Z,41.60
2018-04-17T12:08:48.814Z,41.00
2018-04-17T12:11:16.974Z,40.90
2018-04-17T12:13:45.128Z,41.30
2018-04-17T12:16:13.304Z,43.30
2018-04-17T12:18:41.466Z,41.30
2018-04-17T12:21:09.645Z,40.00
2018-04-17T12:23:37.790Z,39.00
2018-04-17T12:26:06.735Z,41.70
2018-04-17T12:28:34.931Z,41.70
2018-04-17T12:31:03.098Z,41.90
2018-04-17T12:33:31.370Z,39.50
2018-04-17T12:35:59.542Z,38.80
2018-04-17T12:38:28.535Z,36.60
2018-04-17T12:40:56.712Z,36.60
2018-04-17T12:43:24.974Z,41.80
2018-04-17T12:45:53.275Z,37.30
2018-04-17T12:48:22.264Z,38.00
2018-04-17T12:50:50.530Z,38.00
2018-04-17T12:53:18.678Z,40.50
2018-04-17T12:55:46.856Z,41.40
2018-04-17T12:58:15.833Z,38.40
2018-04-17T13:00:44.008Z,38.40
2018-04-17T13:03:12.162Z,37.90
2018-04-17T13:05:41.091Z,37.10
2018-04-17T13:08:10.072Z,39.40
2018-04-17T13:10:38.230Z,39.30
2018-04-17T13:13:06.447Z,37.50
2018-04-17T13:15:34.614Z,39.30
2018-04-17T13:18:03.588Z,36.10
2018-04-17T13:20:31.764Z,36.00
2018-04-17T13:22:59.920Z,33.00
2018-04-17T13:25:28.092Z,34.90
2018-04-17T13:27:57.132Z,34.30
2018-04-17T13:30:25.302Z,34.30
2018-04-17T13:32:53.453Z,36.40
2018-04-17T13:35:21.624Z,36.30
2018-04-17T13:37:50.639Z,32.50
2018-04-17T13:40:18.824Z,32.50
2018-04-17T13:42:46.972Z,34.00
2018-04-17T13:45:15.138Z,36.00
2018-04-17T13:47:44.159Z,32.80
2018-04-17T13:50:12.328Z,32.70
2018-04-17T13:52:40.501Z,32.40
2018-04-17T13:55:08.651Z,31.70
2018-04-17T13:57:37.670Z,35.10
2018-04-17T14:00:05.826Z,35.00
2018-04-17T14:02:34.005Z,32.60
2018-04-17T14:05:02.150Z,35.80
2018-04-17T14:07:31.175Z,34.70
2018-04-17T14:09:59.319Z,34.40
2018-04-17T14:12:27.486Z,36.10
2018-04-17T14:14:55.646Z,35.40
2018-04-17T14:17:24.811Z,33.60
2018-04-17T14:19:53.025Z,33.60
2018-04-17T14:22:21.155Z,35.10
2018-04-17T14:24:49.310Z,33.40
2018-04-17T14:27:18.286Z,34.90
2018-04-17T14:29:46.486Z,34.90
2018-04-17T14:32:14.662Z,34.70
2018-04-17T14:34:42.804Z,34.70
2018-04-17T14:37:11.038Z,34.90
2018-04-17T14:39:40.000Z,37.00
2018-04-17T14:42:08.166Z,36.70
2018-04-17T14:44:36.333Z,34.60
2018-04-17T14:47:05.523Z,30.80
2018-04-17T14:49:33.675Z,30.80
2018-04-17T14:52:01.854Z,31.80
2018-04-17T14:54:30.028Z,33.00
2018-04-17T14:56:58.309Z,33.90
2018-04-17T14:59:26.482Z,32.90
2018-04-17T15:01:54.791Z,35.50
2018-04-17T15:04:22.965Z,32.00
2018-04-17T15:06:51.156Z,33.30
2018-04-17T15:09:19.419Z,33.30
2018-04-17T15:11:47.610Z,33.70
2018-04-17T15:14:15.768Z,34.70
2018-04-17T15:16:43.962Z,35.20
2018-04-17T15:19:12.925Z,33.00
2018-04-17T15:21:41.115Z,33.00
2018-04-17T15:24:09.373Z,34.40
2018-04-17T15:26:38.359Z,33.90
2018-04-17T15:29:06.529Z,33.30
2018-04-17T15:31:35.733Z,33.10
2018-04-17T15:34:03.899Z,33.00
2018-04-17T15:36:32.930Z,33.80
2018-04-17T15:39:01.178Z,33.90
2018-04-17T15:41:29.376Z,34.30
2018-04-17T15:43:58.342Z,36.80
2018-04-17T15:46:26.617Z,36.80
2018-04-17T15:48:54.805Z,37.00
2018-04-17T15:51:22.972Z,35.30
2018-04-17T15:53:51.246Z,37.80
2018-04-17T15:56:19.522Z,36.10
2018-04-17T15:58:47.714Z,36.70
2018-04-17T16:01:15.918Z,35.40
2018-04-17T16:03:44.214Z,34.90
2018-04-17T16:06:12.424Z,41.50
2018-04-17T16:08:40.733Z,40.50
2018-04-17T16:11:09.696Z,40.80
2018-04-17T16:13:38.675Z,38.50
2018-04-17T16:16:06.912Z,38.60
2018-04-17T16:18:35.111Z,38.40
2018-04-17T16:21:03.289Z,38.20
2018-04-17T16:23:31.490Z,40.70
2018-04-17T16:25:59.704Z,43.40
2018-04-17T16:28:30.906Z,42.40
2018-04-17T16:30:59.095Z,42.10
2018-04-17T16:33:28.078Z,42.70
2018-04-17T16:35:56.298Z,42.70
2018-04-17T16:38:24.507Z,41.50
2018-04-17T16:40:52.693Z,36.80
2018-04-17T16:43:20.969Z,35.00
2018-04-17T16:45:49.264Z,35.50
2018-04-17T16:48:18.234Z,37.20
2018-04-17T16:50:46.423Z,37.30
2018-04-17T16:53:14.800Z,36.80
2018-04-17T16:55:43.766Z,37.80
2018-04-17T16:58:12.064Z,37.80
2018-04-17T17:00:40.257Z,40.40
2018-04-17T17:03:08.516Z,41.70
2018-04-17T17:05:36.795Z,39.10
2018-04-17T17:08:05.775Z,39.50
2018-04-17T17:10:33.958Z,39.50
2018-04-17T17:13:02.162Z,40.10
2018-04-17T17:15:31.324Z,40.60
2018-04-17T17:17:59.603Z,40.50
2018-04-17T17:20:29.311Z,40.90
2018-04-17T17:22:57.593Z,40.80
2018-04-17T17:25:26.568Z,40.40
2018-04-17T17:27:55.546Z,40.90
2018-04-17T17:30:23.731Z,40.90
2018-04-17T17:32:51.935Z,40.20
2018-04-17T17:35:20.152Z,39.30
2018-04-17T17:37:48.377Z,40.60
2018-04-17T17:40:17.383Z,40.60
2018-04-17T17:42:46.346Z,40.70
2018-04-17T17:45:14.584Z,40.70
2018-04-17T17:47:42.755Z,41.80
2018-04-17T17:50:10.950Z,41.10
2018-04-17T17:52:39.168Z,41.70
2018-04-17T17:55:07.406Z,43.10
2018-04-17T17:57:35.597Z,45.20
2018-04-17T18:00:03.799Z,45.60
2018-04-17T18:02:32.746Z,50.80
2018-04-17T18:05:01.060Z,50.70
2018-04-17T18:07:29.203Z,48.10
2018-04-17T18:09:57.407Z,49.70
2018-04-17T18:12:25.604Z,50.70
2018-04-17T18:14:53.833Z,53.20
2018-04-17T18:17:22.019Z,52.60
2018-04-17T18:19:50.222Z,53.60
2018-04-17T18:22:18.403Z,54.90
2018-04-17T18:24:46.614Z,53.90
2018-04-17T18:27:14.824Z,55.40
2018-04-17T18:29:43.043Z,56.20
2018-04-17T18:32:11.216Z,55.80
2018-04-17T18:34:39.410Z,57.20
2018-04-17T18:37:07.614Z,58.10
2018-04-17T18:39:35.838Z,58.20
2018-04-17T18:42:04.075Z,60.10
2018-04-17T18:44:33.050Z,60.20
2018-04-17T18:47:01.278Z,60.20
2018-04-17T18:49:30.330Z,61.70
2018-04-17T18:51:59.297Z,61.50
2018-04-17T18:54:27.501Z,61.50
2018-04-17T18:56:55.688Z,61.80
2018-04-17T18:59:24.664Z,62.50
2018-04-17T19:01:52.852Z,62.50
2018-04-17T19:04:21.116Z,62.20
2018-04-17T19:06:49.290Z,62.70
2018-04-17T19:09:17.493Z,63.00
2018-04-17T19:11:46.247Z,62.40
2018-04-17T19:14:14.502Z,62.30
2018-04-17T19:16:42.693Z,62.60
2018-04-17T19:19:10.979Z,63.20
2018-04-17T19:21:39.252Z,62.90
2018-04-17T19:24:07.529Z,62.80
2018-04-17T19:26:35.874Z,63.30
2018-04-17T19:29:04.808Z,63.30
2018-04-17T19:31:33.783Z,63.70
2018-04-17T19:34:02.022Z,63.70
2018-04-17T19:36:30.223Z,63.70
2018-04-17T19:38:58.398Z,65.20
2018-04-17T19:41:26.597Z,64.50
2018-04-17T19:43:54.817Z,65.60
2018-04-17T19:46:23.095Z,65.80
2018-04-17T19:48:51.327Z,65.80
2018-04-17T19:51:20.295Z,66.70
2018-04-17T19:53:48.535Z,66.70
2018-04-17T19:56:17.675Z,66.90
2018-04-17T19:58:45.851Z,66.90
2018-04-17T20:01:14.051Z,67.60
2018-04-17T20:03:42.359Z,67.90
2018-04-17T20:06:10.564Z,68.80
2018-04-17T20:08:38.764Z,69.30
2018-04-17T20:11:07.934Z,69.70
2018-04-17T20:13:36.184Z,69.60
2018-04-17T20:16:04.398Z,70.00
2018-04-17T20:18:32.574Z,69.20
2018-04-17T20:21:01.785Z,69.10
2018-04-17T20:23:31.597Z,69.10
2018-04-17T20:25:59.779Z,69.10
2018-04-17T20:28:28.867Z,70.30
2018-04-17T20:30:57.143Z,70.30
2018-04-17T20:33:26.058Z,70.20
2018-04-17T20:35:55.222Z,71.00
2018-04-17T20:38:23.507Z,71.00
2018-04-17T20:40:51.723Z,72.00
2018-04-17T20:43:19.903Z,72.50
2018-04-17T20:45:48.099Z,72.70
2018-04-17T20:48:16.300Z,72.50
2018-04-17T20:50:44.495Z,72.50
2018-04-17T20:53:12.807Z,73.00
2018-04-17T20:55:41.006Z,73.80
2018-04-17T20:58:09.173Z,72.70
2018-04-17T21:00:37.373Z,73.10
2018-04-17T21:03:05.602Z,72.90
2018-04-17T21:05:33.811Z,72.90
2018-04-17T21:08:01.994Z,73.90
2018-04-17T21:10:30.198Z,73.70
2018-04-17T21:12:58.399Z,73.90
2018-04-17T21:15:26.599Z,73.30
2018-04-17T21:17:55.687Z,73.40
2018-04-17T21:20:23.898Z,73.30
2018-04-17T21:22:52.119Z,73.70
2018-04-17T21:25:20.322Z,74.20
2018-04-17T21:27:48.494Z,74.80
2018-04-17T21:30:16.680Z,74.10
2018-04-17T21:32:45.078Z,74.10
2018-04-17T21:35:13.256Z,73.90
2018-04-17T21:37:41.455Z,74.00
2018-04-17T21:40:09.638Z,74.10
2018-04-17T21:42:37.947Z,74.60
2018-04-17T21:45:06.117Z,73.80
2018-04-17T21:47:34.423Z,75.20
2018-04-17T21:50:02.604Z,75.20
2018-04-17T21:52:31.596Z,75.40
2018-04-17T21:54:59.760Z,75.40
2018-04-17T21:57:27.951Z,75.00
2018-04-17T21:59:56.207Z,75.30
2018-04-17T22:02:24.383Z,75.60
2018-04-17T22:04:52.539Z,75.80
2018-04-17T22:07:20.749Z,76.30
2018-04-17T22:09:48.904Z,76.60
2018-04-17T22:12:17.200Z,76.40
2018-04-17T22:14:45.360Z,76.20
2018-04-17T22:17:13.522Z,75.90
2018-04-17T22:19:41.683Z,76.10
2018-04-17T22:22:10.722Z,76.50
2018-04-17T22:24:38.879Z,76.40
2018-04-17T22:27:07.048Z,76.60
2018-04-17T22:29:35.233Z,77.00
2018-04-17T22:32:04.198Z,77.50
2018-04-17T22:34:32.354Z,76.70
2018-04-17T22:37:00.536Z,77.00
2018-04-17T22:39:28.688Z,77.30
2018-04-17T22:41:57.720Z,78.60
2018-04-17T22:44:25.858Z,77.80
2018-04-17T22:46:54.798Z,77.90
2018-04-17T22:49:22.949Z,77.90
2018-04-17T22:51:51.960Z,78.80
2018-04-17T22:54:20.106Z,77.90
2018-04-17T22:56:48.279Z,77.70
2018-04-17T22:59:16.434Z,77.90
2018-04-17T23:01:45.371Z,78.00
2018-04-17T23:04:13.531Z,78.00
2018-04-17T23:06:41.694Z,78.20
2018-04-17T23:09:09.910Z,78.60
2018-04-17T23:11:38.869Z,79.00
2018-04-17T23:14:07.023Z,78.90
2018-04-17T23:16:35.193Z,79.10
2018-04-17T23:19:04.115Z,79.60
2018-04-17T23:21:33.093Z,79.20
2018-04-17T23:24:01.262Z,79.20
2018-04-17T23:26:29.483Z,79.30
2018-04-17T23:28:57.655Z,79.50
2018-04-17T23:31:26.608Z,79.10
2018-04-17T23:33:54.780Z,79.70
2018-04-17T23:36:22.926Z,79.70
2018-04-17T23:38:51.887Z,79.50
2018-04-17T23:41:20.843Z,80.30
2018-04-17T23:43:49.022Z,80.30
2018-04-17T23:46:17.169Z,80.10
2018-04-17T23:48:46.114Z,80.90
2018-04-17T23:51:14.318Z,80.80
2018-04-17T23:53:42.503Z,80.50
2018-04-17T23:56:10.654Z,80.30
2018-04-17T23:58:38.822Z,80.40
